Time;durP1;ratioP1;P1;durP2;ratioP2;P2;SDS_P1;SDS_P2;PMS_P1;PMS_P2;Temp;Humidity;BMP_temperature;BMP_pressure;BME280_temperature;BME280_humidity;BME280_pressure;Samples;Min_cycle;Max_cycle;Signal;HPM_P1;HPM_P2
2021/05/17 00:00:40;;;;;;;12.80;6.95;;;;;;;8.18;83.65;97986.70;3842431;91;21125;-81
2021/05/17 00:06:43;;;;;;;11.20;6.65;;;;;;;8.08;83.80;97990.14;3841611;91;21776;-82
2021/05/17 00:12:45;;;;;;;9.55;4.97;;;;;;;7.97;83.61;97979.80;3843698;91;21113;-82
2021/05/17 00:18:47;;;;;;;13.10;6.78;;;;;;;7.84;83.92;97977.98;3841594;91;21204;-81
2021/05/17 00:24:49;;;;;;;10.70;4.50;;;;;;;7.83;83.97;97975.03;3824331;91;21125;-82
2021/05/17 00:30:50;;;;;;;11.83;6.10;;;;;;;7.90;84.65;97970.20;3841830;91;21180;-82
2021/05/17 00:36:53;;;;;;;9.90;5.35;;;;;;;7.80;83.99;97967.63;3840827;91;21068;-82
2021/05/17 00:42:56;;;;;;;14.73;7.08;;;;;;;7.81;83.99;97961.61;3842697;91;21096;-81
2021/05/17 00:48:57;;;;;;;14.63;5.55;;;;;;;7.70;84.13;97953.38;3822040;91;21481;-82
2021/05/17 00:55:00;;;;;;;9.58;6.42;;;;;;;7.55;83.96;97927.20;3826468;91;21153;-82
2021/05/17 01:01:03;;;;;;;13.15;5.50;;;;;;;7.40;84.05;97920.13;3824850;91;21105;-81
2021/05/17 01:07:06;;;;;;;13.45;5.95;;;;;;;7.53;84.81;97906.97;3838751;91;21105;-81
2021/05/17 01:13:10;;;;;;;10.88;5.08;;;;;;;7.58;84.50;97912.06;3836789;91;21092;-82
2021/05/17 01:19:13;;;;;;;11.78;6.25;;;;;;;7.54;85.16;97906.59;3835220;89;21683;-82
2021/05/17 01:25:19;;;;;;;13.72;6.53;;;;;;;7.40;84.68;97907.08;3936715;88;21230;-83
2021/05/17 01:31:23;;;;;;;14.40;7.40;;;;;;;7.51;85.42;97907.35;3942907;88;21677;-81
2021/05/17 01:37:29;;;;;;;12.73;6.10;;;;;;;7.73;85.85;97920.50;3937241;88;21603;-83
2021/05/17 01:43:33;;;;;;;15.03;6.50;;;;;;;7.74;85.11;97913.88;3949779;88;21166;-81
2021/05/17 01:49:38;;;;;;;11.88;5.95;;;;;;;7.80;85.72;97921.88;3869440;90;21128;-81
2021/05/17 01:55:42;;;;;;;11.68;6.75;;;;;;;8.04;85.85;97919.86;3966311;88;21137;-84
2021/05/17 02:01:46;;;;;;;10.18;6.00;;;;;;;8.05;85.75;97914.59;3871656;90;21160;-81
2021/05/17 02:07:47;;;;;;;9.30;6.62;;;;;;;7.93;85.49;97908.12;3970059;88;21133;-82
2021/05/17 02:13:49;;;;;;;12.88;6.28;;;;;;;7.88;85.61;97908.49;3891704;90;21109;-83
2021/05/17 02:19:51;;;;;;;10.18;6.45;;;;;;;8.08;86.16;97918.52;3842447;91;21119;-81
2021/05/17 02:25:53;;;;;;;10.85;6.33;;;;;;;7.96;85.96;97927.23;3842161;91;21132;-82
2021/05/17 02:31:56;;;;;;;9.20;5.75;;;;;;;7.85;86.29;97911.41;3841740;91;21150;-81
2021/05/17 02:37:58;;;;;;;14.93;8.35;;;;;;;7.84;86.08;97903.63;3841813;91;21700;-81
2021/05/17 02:44:00;;;;;;;16.48;8.28;;;;;;;7.78;86.43;97894.26;3841961;91;21147;-81
2021/05/17 02:50:06;;;;;;;14.68;8.15;;;;;;;7.83;86.93;97895.23;3842152;91;21676;-82
2021/05/17 02:56:11;;;;;;;15.58;8.13;;;;;;;7.96;86.90;97889.08;3841812;91;21127;-81
2021/05/17 03:02:17;;;;;;;12.15;8.03;;;;;;;8.23;87.04;97896.39;3842091;91;21113;-82
2021/05/17 03:08:22;;;;;;;12.85;7.10;;;;;;;8.39;86.90;97894.11;3843834;90;21092;-83
2021/05/17 03:14:24;;;;;;;13.65;7.45;;;;;;;8.30;86.66;97893.67;3841716;91;21125;-83
2021/05/17 03:20:28;;;;;;;10.53;7.92;;;;;;;8.37;87.19;97888.25;3840815;91;21110;-82
2021/05/17 03:26:30;;;;;;;15.68;7.30;;;;;;;8.58;87.31;97900.55;3952329;87;21468;-82
2021/05/17 03:32:31;;;;;;;16.20;7.30;;;;;;;8.71;86.93;97914.59;3951650;88;21112;-82
2021/05/17 03:38:33;;;;;;;10.88;7.00;;;;;;;8.78;87.16;97930.41;3952410;89;21661;-81
2021/05/17 03:44:34;;;;;;;10.38;6.92;;;;;;;8.95;87.07;97950.11;3952082;87;21117;-81
2021/05/17 03:50:35;;;;;;;9.13;5.65;;;;;;;9.02;86.97;97946.01;3876803;90;21138;-81
2021/05/17 03:56:37;;;;;;;11.43;6.95;;;;;;;9.01;87.05;97949.13;3841646;91;21108;-82
2021/05/17 04:02:40;;;;;;;8.93;5.78;;;;;;;8.98;87.01;97934.89;3843025;91;21084;-84
2021/05/17 04:14:43;;;;;;;12.43;6.53;;;;;;;9.05;87.69;97927.48;3840933;91;21426;-81
2021/05/17 04:20:44;;;;;;;9.98;5.42;;;;;;;9.09;87.74;97932.95;3841737;91;21232;-81
2021/05/17 04:26:46;;;;;;;9.63;6.03;;;;;;;9.24;88.18;97953.03;3841860;91;21187;-81
2021/05/17 04:32:47;;;;;;;7.35;5.55;;;;;;;9.47;88.02;97946.56;3952520;89;21745;-82
2021/05/17 04:38:49;;;;;;;11.55;7.53;;;;;;;9.72;87.87;97948.48;3952475;89;21703;-81
2021/05/17 04:44:50;;;;;;;9.43;7.30;;;;;;;9.84;87.90;97946.11;3975462;88;21059;-82
2021/05/17 04:50:51;;;;;;;8.80;6.80;;;;;;;9.92;87.88;97941.40;3878590;90;21138;-80
2021/05/17 04:56:53;;;;;;;12.93;8.78;;;;;;;9.95;87.90;97956.44;3961920;85;35411;-81
2021/05/17 05:02:54;;;;;;;11.57;7.58;;;;;;;10.01;88.06;97943.91;3886780;90;21814;-81
2021/05/17 05:08:55;;;;;;;13.98;6.67;;;;;;;9.94;88.45;97948.63;3964612;88;21448;-81
2021/05/17 05:14:57;;;;;;;14.18;8.25;;;;;;;10.05;89.03;97952.90;3964629;88;21116;-82
2021/05/17 05:20:58;;;;;;;9.43;6.22;;;;;;;10.05;88.73;97943.91;3971401;88;21119;-82
2021/05/17 05:27:17;;;;;;;9.75;6.50;;;;;;;10.17;88.70;97949.75;3947666;88;21100;-83
2021/05/17 05:33:15;;;;;;;10.80;6.42;;;;;;;10.29;88.75;97954.01;3892335;90;21085;-82
2021/05/17 05:39:17;;;;;;;14.05;6.80;;;;;;;10.44;88.62;97952.75;3956939;87;21114;-82
2021/05/17 05:45:20;;;;;;;10.30;6.80;;;;;;;10.51;88.74;97948.59;3947338;88;21082;-82
2021/05/17 05:51:23;;;;;;;9.90;7.03;;;;;;;10.70;88.72;97935.78;3955852;88;21064;-83
2021/05/17 05:57:26;;;;;;;11.20;6.25;;;;;;;10.86;88.93;97930.60;3949116;88;21103;-83
2021/05/17 06:03:28;;;;;;;14.53;6.67;;;;;;;11.07;88.89;97924.98;3959836;88;21096;-82
2021/05/17 06:09:29;;;;;;;10.03;6.10;;;;;;;11.32;88.95;97913.80;3975711;87;21139;-83
2021/05/17 06:15:31;;;;;;;11.55;6.30;;;;;;;11.68;88.93;97917.17;3973468;88;21101;-83
2021/05/17 06:21:33;;;;;;;9.58;5.03;;;;;;;11.95;88.46;97916.69;3979111;88;21096;-82
2021/05/17 06:27:36;;;;;;;6.87;4.15;;;;;;;12.18;87.70;97909.18;3979666;88;21164;-83
2021/05/17 06:33:39;;;;;;;6.62;3.17;;;;;;;12.41;87.55;97902.41;3982584;88;21072;-83
2021/05/17 06:39:40;;;;;;;6.92;3.02;;;;;;;12.73;86.95;97893.72;3893125;89;21127;-83
2021/05/17 06:45:42;;;;;;;2.40;2.20;;;;;;;13.06;86.98;97895.59;3976857;87;21122;-84
2021/05/17 06:51:44;;;;;;;4.78;1.77;;;;;;;13.57;86.42;97878.00;3980366;88;21675;-83
2021/05/17 06:57:52;;;;;;;4.40;1.40;;;;;;;14.10;85.64;97879.70;3976587;88;21607;-83
2021/05/17 07:03:50;;;;;;;6.22;2.30;;;;;;;14.65;83.56;97874.80;3981042;87;21112;-84
2021/05/17 07:16:11;;;;;;;6.67;2.12;;;;;;;14.92;82.57;97862.36;3891508;90;21632;-84
2021/05/17 07:28:32;;;;;;;6.15;2.52;;;;;;;15.85;81.05;97849.13;3894791;90;21582;-83
2021/05/17 07:34:35;;;;;;;5.42;2.62;;;;;;;16.15;80.55;97842.52;4015444;84;50532;-83
2021/05/17 07:40:37;;;;;;;4.58;2.15;;;;;;;16.46;78.60;97839.43;4166184;83;21097;-83
2021/05/17 07:46:39;;;;;;;5.25;1.90;;;;;;;16.57;77.95;97824.69;4152795;84;21073;-82
2021/05/17 07:52:40;;;;;;;3.75;2.00;;;;;;;16.64;77.56;97824.48;4089531;85;21173;-85
2021/05/17 07:58:43;;;;;;;9.58;2.83;;;;;;;16.72;76.76;97827.19;4149126;84;22112;-84
2021/05/17 08:04:44;;;;;;;5.65;3.12;;;;;;;16.96;76.26;97822.83;4168153;83;21085;-83
2021/05/17 08:10:45;;;;;;;7.22;2.60;;;;;;;17.18;75.95;97813.98;4133996;84;21657;-84
2021/05/17 08:16:48;;;;;;;8.25;3.22;;;;;;;17.20;74.94;97808.02;4128475;85;21348;-85
2021/05/17 08:22:49;;;;;;;7.92;2.92;;;;;;;17.36;73.70;97800.94;4128165;85;21092;-84
2021/05/17 08:28:52;;;;;;;10.28;3.27;;;;;;;17.38;73.07;97799.11;4128878;85;21053;-84
2021/05/17 08:34:53;;;;;;;7.50;3.95;;;;;;;17.18;71.36;97799.38;4126969;85;21164;-84
2021/05/17 08:40:54;;;;;;;5.03;3.27;;;;;;;17.12;72.01;97815.00;4122585;85;21084;-84
2021/05/17 08:46:56;;;;;;;5.62;3.10;;;;;;;16.98;69.20;97801.65;4124962;85;21967;-83
2021/05/17 08:52:59;;;;;;;6.53;2.85;;;;;;;16.85;67.96;97794.01;4129879;85;21104;-84
2021/05/17 08:59:05;;;;;;;6.55;2.95;;;;;;;16.86;70.35;97801.85;4127678;85;21065;-85
2021/05/17 09:05:17;;;;;;;7.87;2.65;;;;;;;17.12;69.66;97798.41;4125916;85;21084;-84
2021/05/17 09:11:33;;;;;;;3.72;2.10;;;;;;;17.21;69.19;97791.60;4174152;83;21077;-85
2021/05/17 09:17:36;;;;;;;5.40;1.90;;;;;;;17.12;69.31;97800.57;4169524;83;21076;-84
2021/05/17 09:23:38;;;;;;;4.58;1.90;;;;;;;17.26;68.36;97815.14;4162029;83;21136;-84
2021/05/17 09:29:44;;;;;;;4.60;1.50;;;;;;;17.26;69.16;97812.38;4172806;83;21101;-83
2021/05/17 09:35:47;;;;;;;7.13;3.07;;;;;;;17.21;67.64;97811.71;4161022;83;21616;-83
2021/05/17 09:41:55;;;;;;;4.62;2.72;;;;;;;17.08;67.68;97820.67;4167908;83;21718;-83
2021/05/17 09:47:56;;;;;;;7.40;3.07;;;;;;;16.94;67.46;97828.65;4160071;83;21104;-84
2021/05/17 09:53:59;;;;;;;5.47;3.05;;;;;;;16.85;68.16;97828.55;4164652;83;21115;-84
2021/05/17 10:00:19;;;;;;;6.30;2.45;;;;;;;16.62;68.08;97815.84;4169519;83;21628;-85
2021/05/17 10:06:23;;;;;;;5.53;2.12;;;;;;;16.42;68.55;97814.48;4175117;83;21081;-83
2021/05/17 10:12:24;;;;;;;4.62;2.00;;;;;;;16.29;68.44;97810.94;4176245;83;21101;-85
2021/05/17 10:18:27;;;;;;;4.00;1.67;;;;;;;16.23;68.04;97805.80;4175567;83;21096;-85
2021/05/17 10:24:28;;;;;;;10.30;1.70;;;;;;;16.12;68.05;97804.74;4165252;83;21140;-84
2021/05/17 10:30:33;;;;;;;7.62;1.57;;;;;;;16.10;67.77;97807.16;4178078;83;21113;-83
2021/05/17 10:36:57;;;;;;;5.08;2.20;;;;;;;16.06;68.05;97796.84;4176375;83;21112;-83
2021/05/17 10:43:10;;;;;;;4.25;1.80;;;;;;;16.07;69.00;97799.01;4169112;83;21128;-84
2021/05/17 10:49:35;;;;;;;3.12;1.75;;;;;;;16.10;69.16;97789.22;4163068;83;21061;-82
2021/05/17 10:55:37;;;;;;;4.50;2.50;;;;;;;16.11;69.39;97785.27;4170035;83;21117;-85
2021/05/17 11:01:57;;;;;;;9.28;2.42;;;;;;;16.10;69.81;97789.84;4166969;83;21108;-84
2021/05/17 11:08:02;;;;;;;7.25;2.87;;;;;;;16.11;69.80;97787.24;4167782;83;21549;-85
2021/05/17 11:14:20;;;;;;;9.10;3.47;;;;;;;16.12;70.58;97789.56;4142366;84;21093;-83
2021/05/17 11:20:47;;;;;;;3.45;2.27;;;;;;;15.99;70.60;97783.23;4135259;84;21061;-84
2021/05/17 11:26:57;;;;;;;6.17;2.77;;;;;;;15.80;71.25;97782.06;4130662;84;21167;-84
2021/05/17 11:33:19;;;;;;;5.42;3.45;;;;;;;15.55;71.29;97775.87;4131541;84;21088;-82
2021/05/17 11:39:27;;;;;;;6.28;3.30;;;;;;;15.32;71.78;97789.26;4138587;84;21115;-84
2021/05/17 11:45:34;;;;;;;5.25;2.65;;;;;;;15.11;72.56;97787.67;3999069;87;21613;-85
2021/05/17 11:51:37;;;;;;;8.53;3.30;;;;;;;14.91;73.26;97792.53;3984293;88;21094;-83
2021/05/17 11:57:41;;;;;;;8.58;3.83;;;;;;;14.75;73.81;97797.41;3970700;87;21134;-84
2021/05/17 12:03:43;;;;;;;9.45;3.30;;;;;;;14.64;74.26;97796.14;3964038;88;22166;-83
2021/05/17 12:09:56;;;;;;;6.25;3.52;;;;;;;14.53;75.00;97795.02;3971409;86;21707;-83
2021/05/17 12:15:57;;;;;;;8.50;4.58;;;;;;;14.54;75.48;97785.55;4091730;85;21051;-83
2021/05/17 12:22:06;;;;;;;8.78;4.33;;;;;;;14.48;75.97;97778.22;4126837;84;21062;-83
2021/05/17 12:28:07;;;;;;;7.72;3.42;;;;;;;14.46;76.56;97775.91;4150045;84;21093;-84
2021/05/17 12:34:09;;;;;;;6.92;2.50;;;;;;;14.45;76.59;97775.73;4093194;85;21105;-84
2021/05/17 12:40:22;;;;;;;5.00;2.60;;;;;;;14.42;76.78;97774.44;4105521;85;21638;-83
2021/05/17 12:46:28;;;;;;;5.35;2.20;;;;;;;14.50;76.85;97779.95;4041857;86;21158;-85
2021/05/17 12:52:36;;;;;;;5.97;1.93;;;;;;;14.33;77.47;97777.77;4045041;86;21607;-84
2021/05/17 12:58:40;;;;;;;6.60;3.30;;;;;;;14.47;77.68;97774.69;4159301;83;21062;-85
2021/05/17 13:04:48;;;;;;;8.15;3.98;;;;;;;14.61;78.19;97777.09;4062558;85;21096;-84
2021/05/17 13:11:00;;;;;;;10.40;4.97;;;;;;;14.68;78.17;97769.27;4094774;84;21145;-84
2021/05/17 13:17:04;;;;;;;10.55;4.50;;;;;;;14.45;78.54;97777.11;4094604;85;21085;-84
2021/05/17 13:23:40;;;;;;;9.53;5.10;;;;;;;14.46;78.55;97771.77;4081183;85;21099;-83
2021/05/17 13:35:43;;;;;;;7.42;3.80;;;;;;;14.41;79.06;97769.52;4076657;85;21198;-84
2021/05/17 13:41:44;;;;;;;8.50;4.30;;;;;;;14.22;79.04;97773.08;4126543;84;21074;-84
2021/05/17 13:47:46;;;;;;;8.30;4.42;;;;;;;14.25;79.37;97768.75;4122708;85;21153;-85
2021/05/17 13:53:48;;;;;;;7.92;3.98;;;;;;;14.28;79.57;97768.67;4124218;85;21688;-84
2021/05/17 13:59:50;;;;;;;9.98;3.83;;;;;;;14.26;79.71;97768.31;4125630;85;21610;-83
2021/05/17 14:05:51;;;;;;;7.22;3.15;;;;;;;14.22;79.93;97765.44;4128780;85;21026;-84
2021/05/17 14:11:55;;;;;;;7.03;3.62;;;;;;;14.14;80.15;97768.34;4118850;85;21089;-84
2021/05/17 14:17:56;;;;;;;10.00;4.72;;;;;;;14.09;80.29;97752.95;4126665;85;21059;-84
2021/05/17 14:23:57;;;;;;;11.30;4.30;;;;;;;14.07;80.66;97753.37;4130598;85;21593;-84
2021/05/17 14:29:59;;;;;;;10.15;4.85;;;;;;;14.06;80.72;97754.56;4122113;85;21061;-84
2021/05/17 14:36:00;;;;;;;10.78;5.20;;;;;;;14.10;80.81;97753.90;4128605;85;21969;-85
2021/05/17 14:42:01;;;;;;;12.50;5.45;;;;;;;14.15;81.20;97752.61;4125141;85;21145;-84
2021/05/17 14:48:03;;;;;;;10.68;6.03;;;;;;;14.15;81.40;97755.37;4117978;85;21609;-84
2021/05/17 14:54:07;;;;;;;11.22;6.33;;;;;;;14.08;81.47;97752.17;4116881;85;21081;-83
2021/05/17 15:00:14;;;;;;;13.25;6.60;;;;;;;14.07;81.54;97759.48;4124610;85;21050;-83
2021/05/17 15:06:15;;;;;;;12.13;6.42;;;;;;;14.05;81.65;97768.75;4126872;85;21110;-83
2021/05/17 15:12:17;;;;;;;9.15;6.15;;;;;;;13.98;81.83;97769.67;4137790;84;21594;-83
2021/05/17 15:18:19;;;;;;;14.63;7.08;;;;;;;13.97;82.06;97770.10;4144818;83;21879;-85
2021/05/17 15:24:20;;;;;;;9.93;7.05;;;;;;;13.98;82.17;97770.30;4101046;85;21054;-84
2021/05/17 15:30:23;;;;;;;14.03;8.65;;;;;;;14.05;82.29;97772.28;4105961;84;21069;-84
2021/05/17 15:36:25;;;;;;;12.70;9.43;;;;;;;14.03;82.28;97766.42;4105960;85;21054;-83
2021/05/17 15:42:26;;;;;;;12.95;8.68;;;;;;;14.05;82.63;97772.88;4103613;84;21128;-84
2021/05/17 15:48:28;;;;;;;10.65;8.33;;;;;;;14.06;82.68;97773.83;4092829;85;21097;-84
2021/05/17 15:54:30;;;;;;;9.80;8.13;;;;;;;14.00;82.51;97774.78;4126677;84;21048;-85
2021/05/17 16:00:31;;;;;;;11.18;7.40;;;;;;;13.85;82.49;97771.55;4110265;84;21673;-84
2021/05/17 16:06:33;;;;;;;7.67;6.72;;;;;;;13.75;82.58;97767.04;4091639;85;21096;-84
2021/05/17 16:12:40;;;;;;;8.98;6.80;;;;;;;13.71;82.75;97773.81;4082396;85;21109;-85
2021/05/17 16:24:42;;;;;;;16.00;8.20;;;;;;;13.53;83.06;97768.67;4077441;86;21671;-85
2021/05/17 16:30:44;;;;;;;13.32;8.60;;;;;;;13.47;83.36;97777.23;4071168;86;21065;-85
2021/05/17 16:36:45;;;;;;;12.18;8.83;;;;;;;13.37;83.50;97778.83;4077787;86;21741;-85
2021/05/17 16:42:46;;;;;;;9.95;7.87;;;;;;;13.26;83.82;97776.30;4070479;86;21098;-84
2021/05/17 16:49:02;;;;;;;13.78;9.10;;;;;;;13.05;84.18;97780.80;4069469;86;21436;-85
2021/05/17 16:55:08;;;;;;;11.60;6.92;;;;;;;13.06;84.43;97773.33;4075759;86;21027;-85
2021/05/17 17:01:10;;;;;;;11.80;7.67;;;;;;;12.78;84.89;97784.17;4068742;86;21065;-84
2021/05/17 17:07:11;;;;;;;12.82;6.80;;;;;;;12.75;85.17;97776.77;4069491;85;21567;-86
2021/05/17 17:13:14;;;;;;;9.75;6.70;;;;;;;12.59;85.62;97780.17;4120990;84;21113;-84
2021/05/17 17:19:17;;;;;;;13.30;7.33;;;;;;;12.67;85.77;97769.09;4103821;81;37891;-86
2021/05/17 17:25:18;;;;;;;15.48;6.87;;;;;;;12.70;85.58;97779.23;4116322;84;21108;-86
2021/05/17 17:31:21;;;;;;;13.68;7.08;;;;;;;12.72;85.73;97780.35;4099515;86;21112;-86
2021/05/17 17:37:22;;;;;;;14.60;6.30;;;;;;;12.58;85.75;97791.56;3986068;86;10000206;-84
2021/05/17 17:43:27;;;;;;;11.73;7.58;;;;;;;12.58;86.10;97797.06;4049312;86;21631;-84
2021/05/17 17:49:26;;;;;;;19.10;8.05;;;;;;;12.70;85.94;97784.11;4055286;87;21989;-86
2021/05/17 17:55:28;;;;;;;10.58;7.00;;;;;;;12.73;85.86;97783.30;4045688;86;21368;-85
2021/05/17 18:01:29;;;;;;;10.95;6.33;;;;;;;12.68;85.65;97794.13;4041511;87;21110;-85
2021/05/17 18:07:31;;;;;;;9.68;5.83;;;;;;;12.59;85.90;97793.89;3978174;88;21087;-85
2021/05/17 18:13:32;;;;;;;12.23;5.97;;;;;;;12.56;85.70;97780.22;3953237;88;21559;-85
2021/05/17 18:19:35;;;;;;;9.15;6.15;;;;;;;12.37;85.85;97777.58;4061470;86;21120;-85
2021/05/17 18:25:36;;;;;;;11.08;6.45;;;;;;;12.18;85.93;97792.58;4066547;85;21082;-86
2021/05/17 18:31:42;;;;;;;11.18;6.20;;;;;;;11.97;86.44;97790.91;4055033;86;21074;-86
2021/05/17 18:37:42;;;;;;;10.80;7.03;;;;;;;12.08;86.79;97790.17;4058341;86;21088;-85
2021/05/17 18:43:49;;;;;;;14.15;7.33;;;;;;;12.19;86.73;97789.42;4061889;85;21093;-86
2021/05/17 18:49:47;;;;;;;12.43;6.40;;;;;;;12.24;86.64;97797.20;4062787;86;21100;-85
2021/05/17 18:55:49;;;;;;;11.75;7.40;;;;;;;12.09;86.90;97806.05;4052896;86;21057;-85
2021/05/17 19:01:50;;;;;;;14.87;8.95;;;;;;;11.99;87.14;97808.33;4077368;85;21113;-85
2021/05/17 19:07:52;;;;;;;13.55;10.03;;;;;;;12.07;87.22;97811.16;4046897;86;21081;-85
2021/05/17 19:13:53;;;;;;;13.32;9.90;;;;;;;12.11;87.17;97812.66;4095914;86;21108;-85
2021/05/17 19:19:55;;;;;;;16.50;9.83;;;;;;;12.02;87.10;97810.23;4035433;86;21137;-85
2021/05/17 19:25:57;;;;;;;19.00;11.45;;;;;;;12.01;87.55;97810.06;3971316;87;21148;-85
2021/05/17 19:31:59;;;;;;;16.73;11.18;;;;;;;12.15;87.55;97808.50;3970480;87;21130;-86
2021/05/17 19:38:01;;;;;;;17.57;11.12;;;;;;;12.15;87.47;97809.88;4021148;87;21656;-85
2021/05/17 19:44:03;;;;;;;19.10;10.05;;;;;;;12.10;87.50;97806.22;4038550;86;22412;-84
2021/05/17 19:50:09;;;;;;;16.02;10.80;;;;;;;12.07;87.51;97811.95;4034884;87;21906;-85
2021/05/17 19:56:11;;;;;;;20.08;11.78;;;;;;;12.08;87.56;97808.59;4035306;87;21083;-85
2021/05/17 20:02:12;;;;;;;16.87;11.95;;;;;;;12.09;87.66;97806.05;4040829;87;21037;-85
2021/05/17 20:08:13;;;;;;;20.15;10.65;;;;;;;12.03;87.68;97811.78;4102787;86;21088;-85
2021/05/17 20:14:16;;;;;;;15.93;12.10;;;;;;;11.95;87.88;97808.98;4067692;86;21164;-85
2021/05/17 20:20:21;;;;;;;17.23;12.78;;;;;;;12.00;88.05;97813.98;4059202;85;21619;-84
2021/05/17 20:26:22;;;;;;;14.45;10.75;;;;;;;11.99;87.94;97808.33;4066123;85;21078;-85
2021/05/17 20:32:24;;;;;;;18.98;10.43;;;;;;;11.98;88.08;97806.78;4064250;85;21642;-83
2021/05/17 20:38:27;;;;;;;18.82;9.93;;;;;;;11.99;88.00;97798.72;4067700;86;21118;-84
2021/05/17 20:44:36;;;;;;;15.93;9.45;;;;;;;11.90;87.93;97786.88;4057321;86;22317;-85
2021/05/17 20:50:33;;;;;;;15.05;8.63;;;;;;;11.77;88.11;97795.49;4064343;85;21113;-84
2021/05/17 20:56:36;;;;;;;17.40;10.70;;;;;;;11.75;88.20;97792.95;4073481;85;21072;-85
2021/05/17 21:02:39;;;;;;;14.20;9.93;;;;;;;11.70;88.26;97787.95;4068206;86;21160;-84
2021/05/17 21:08:40;;;;;;;13.93;9.95;;;;;;;11.67;88.32;97787.38;4051769;86;21121;-85
2021/05/17 21:14:41;;;;;;;17.23;8.65;;;;;;;11.65;88.52;97784.29;4069699;85;21065;-85
2021/05/17 21:20:44;;;;;;;12.00;8.15;;;;;;;11.59;88.48;97786.66;4072009;85;21616;-85
2021/05/17 21:26:46;;;;;;;13.13;8.53;;;;;;;11.56;88.55;97781.25;4066340;86;21138;-85
2021/05/17 21:32:49;;;;;;;14.00;9.00;;;;;;;11.58;88.64;97780.22;4069334;85;21194;-85
2021/05/17 21:57:10;;;;;;;12.55;9.18;;;;;;;12.04;88.95;97808.63;4443167;76;22747;-86
2021/05/17 22:03:30;;;;;;;16.52;12.15;;;;;;;11.93;88.56;97805.25;4256156;82;21151;-86
2021/05/17 22:16:15;;;;;;;20.15;10.98;;;;;;;11.69;88.74;97806.94;4235179;82;21136;-86
2021/05/17 22:22:16;;;;;;;12.13;8.83;;;;;;;11.60;88.93;97811.53;4252246;82;21133;-86
2021/05/17 22:28:24;;;;;;;10.18;7.22;;;;;;;11.51;88.87;97807.73;4243108;82;21099;-86
2021/05/17 22:34:33;;;;;;;11.95;7.17;;;;;;;11.39;89.00;97817.24;4245039;82;21592;-86
2021/05/17 22:40:33;;;;;;;;;;;;;;;11.33;89.04;97824.94;4254724;82;21101;-86
2021/05/17 22:46:36;;;;;;;11.40;6.90;;;;;;;11.26;89.43;97829.13;4236347;82;20188;-86
2021/05/17 22:52:38;;;;;;;17.27;10.50;;;;;;;11.20;89.39;97832.14;4235882;82;21100;-86
2021/05/17 23:33:08;;;;;;;17.82;9.63;;;;;;;11.28;89.30;97824.01;4490361;77;21033;-84
2021/05/17 23:59:16;;;;;;;15.68;9.70;;;;;;;10.97;89.68;97817.09;4342018;80;22415;-84
